Saint-Prime, Canada
Current Conditions -  °F | °C
As of 5:00 AM on Sunday 26 Oct 2014 (Local Time) from CYRJ Reporting Station
Drizzle Drizzle  
Wind Chill: 41°   Ceiling: 200
Heat Index: 41°   Visibility: 2mi
Dew Point: 39°   Wind: 2mph
Humidity: 93%   Direction: NA
Pressure: 29.33"   Gusts: NA
Location:  48.6°N, 72.33°W
Report Text: CYRJ 260900Z VRB02KT 2SM -DZ BR OVC002 05/04 A2933 RMK FG4ST4 CIG VRB 1-3 SLP937
Loading
Personal Weather Stations






























Interactive Weather Map
Tropical Storm Tracking
New forecast layout! Learn more

10-Day Weather Forecast

Advertisements
Track Severe Weather on mobile